Time;durP1;ratioP1;P1;durP2;ratioP2;P2;SDS_P1;SDS_P2;PMS_P1;PMS_P2;Temp;Humidity;BMP_temperature;BMP_pressure;BME280_temperature;BME280_humidity;BME280_pressure;Samples;Min_cycle;Max_cycle;Signal;HPM_P1;HPM_P2
2024/01/24 00:00:13;;;;;;;1999.90;999.90;;;;;;;12.31;100.00;101182.66;10337960;28;20050;-64
2024/01/24 00:05:16;;;;;;;1999.90;999.90;;;;;;;12.63;100.00;101174.66;10337643;28;20050;-64
2024/01/24 00:10:18;;;;;;;1999.90;999.90;;;;;;;12.46;100.00;101167.78;10335926;28;20058;-65
2024/01/24 00:15:21;;;;;;;1999.90;999.90;;;;;;;12.53;100.00;101158.59;10336366;28;20098;-65
2024/01/24 00:20:23;;;;;;;1999.90;999.90;;;;;;;12.47;100.00;101166.00;10336395;28;20490;-65
2024/01/24 00:25:26;;;;;;;1999.90;999.90;;;;;;;12.53;100.00;101165.63;10336737;28;20053;-65
2024/01/24 00:30:28;;;;;;;1999.90;999.90;;;;;;;12.54;100.00;101131.41;10336039;28;20054;-64
2024/01/24 00:35:30;;;;;;;1999.90;999.90;;;;;;;12.62;100.00;101147.53;10336834;28;20047;-65
2024/01/24 00:40:33;;;;;;;1999.90;999.90;;;;;;;12.85;100.00;101144.47;10335656;28;20401;-65
2024/01/24 00:45:35;;;;;;;1999.90;999.90;;;;;;;12.81;100.00;101157.78;10335478;28;20051;-65
2024/01/24 00:50:38;;;;;;;1999.90;999.90;;;;;;;12.71;100.00;101164.53;10335906;28;20077;-65
2024/01/24 00:55:40;;;;;;;1999.90;999.90;;;;;;;12.86;100.00;101143.50;10335247;28;20042;-65
2024/01/24 01:00:43;;;;;;;1999.90;999.90;;;;;;;12.79;100.00;101120.25;10335527;28;20053;-65
2024/01/24 01:05:46;;;;;;;1999.90;999.90;;;;;;;12.73;100.00;101131.13;10334159;28;20085;-64
2024/01/24 01:10:48;;;;;;;1999.90;999.90;;;;;;;12.82;100.00;101129.72;10334857;28;20069;-65
2024/01/24 01:15:51;;;;;;;1999.90;999.90;;;;;;;12.64;100.00;101137.78;10335010;28;20080;-65
2024/01/24 01:20:53;;;;;;;1999.90;999.90;;;;;;;12.54;100.00;101115.66;10334946;28;20046;-65
2024/01/24 01:25:55;;;;;;;1999.90;999.90;;;;;;;12.53;100.00;101139.38;10341986;23;20054;-65
2024/01/24 01:30:58;;;;;;;1999.90;999.90;;;;;;;12.48;100.00;101136.19;10332420;28;20054;-65
2024/01/24 01:36:00;;;;;;;1999.90;999.90;;;;;;;12.54;100.00;101152.41;10334542;28;20070;-65
2024/01/24 01:41:05;;;;;;;1999.90;999.90;;;;;;;12.45;100.00;101131.94;10335174;28;20054;-65
2024/01/24 01:46:12;;;;;;;1999.90;999.90;;;;;;;12.22;100.00;101152.53;10332765;28;20138;-65
2024/01/24 01:51:14;;;;;;;1999.90;999.90;;;;;;;12.44;100.00;101167.03;10332655;28;20409;-66
2024/01/24 01:56:20;;;;;;;1999.90;999.90;;;;;;;12.41;100.00;101147.03;10333007;28;20057;-66
2024/01/24 02:01:22;;;;;;;1999.90;999.90;;;;;;;12.35;100.00;101167.56;10334200;28;20054;-66
2024/01/24 02:06:25;;;;;;;1999.90;999.90;;;;;;;12.08;100.00;101171.69;10333927;28;20043;-66
2024/01/24 02:11:27;;;;;;;1999.90;999.90;;;;;;;12.03;100.00;101173.75;10332830;28;20085;-66
2024/01/24 02:16:30;;;;;;;1999.90;999.90;;;;;;;12.00;100.00;101171.31;10332845;28;20046;-66
2024/01/24 02:21:33;;;;;;;1999.90;999.90;;;;;;;12.04;100.00;101183.31;10333148;28;20050;-66
2024/01/24 02:26:35;;;;;;;1999.90;999.90;;;;;;;11.86;100.00;101174.69;10331783;28;20105;-66
2024/01/24 02:31:38;;;;;;;1999.90;999.90;;;;;;;11.98;100.00;101174.94;10332473;28;20133;-66
2024/01/24 02:36:40;;;;;;;1999.90;999.90;;;;;;;11.80;100.00;101168.94;10333413;28;20050;-66
2024/01/24 02:41:43;;;;;;;1999.90;999.90;;;;;;;12.04;100.00;101158.88;10339119;28;20532;-66
2024/01/24 02:46:45;;;;;;;1999.90;999.90;;;;;;;11.87;100.00;101196.53;10340124;28;20482;-66
2024/01/24 02:51:47;;;;;;;1999.90;999.90;;;;;;;11.90;100.00;101205.06;10339950;28;20054;-65
2024/01/24 02:56:50;;;;;;;1999.90;999.90;;;;;;;11.87;100.00;101196.53;10340270;28;20049;-65
2024/01/24 03:01:52;;;;;;;1999.90;999.90;;;;;;;11.94;100.00;101187.41;10340099;28;20055;-65
2024/01/24 03:06:55;;;;;;;1999.90;999.90;;;;;;;12.04;100.00;101190.34;10339858;28;20056;-66
2024/01/24 03:11:58;;;;;;;1999.90;999.90;;;;;;;11.97;100.00;101181.97;10339770;28;20065;-66
2024/01/24 03:17:01;;;;;;;1999.90;999.90;;;;;;;11.96;100.00;101182.91;10339577;28;20078;-65
2024/01/24 03:22:03;;;;;;;1999.90;999.90;;;;;;;12.03;100.00;101194.75;10339421;28;20050;-66
2024/01/24 03:27:06;;;;;;;1999.90;999.90;;;;;;;11.96;100.00;101206.53;10337213;28;20508;-66
2024/01/24 03:32:08;;;;;;;1999.90;999.90;;;;;;;12.17;100.00;101195.72;10338913;28;20065;-66
2024/01/24 03:37:10;;;;;;;1999.90;999.90;;;;;;;12.09;100.00;101190.94;10337834;28;20046;-66
2024/01/24 03:42:13;;;;;;;1999.90;999.90;;;;;;;12.05;100.00;101221.75;10338050;28;20129;-65
2024/01/24 03:47:16;;;;;;;1999.90;999.90;;;;;;;12.14;100.00;101233.50;10337225;28;20046;-65
2024/01/24 03:52:18;;;;;;;1999.90;999.90;;;;;;;12.14;100.00;101222.16;10337809;28;20133;-66
2024/01/24 03:57:21;;;;;;;1999.90;999.90;;;;;;;12.18;100.00;101221.88;10337407;28;20500;-66
2024/01/24 04:02:23;;;;;;;1999.90;999.90;;;;;;;12.09;100.00;101227.69;10336718;28;20050;-66
2024/01/24 04:07:25;;;;;;;1999.90;999.90;;;;;;;11.98;100.00;101204.66;10336955;28;20522;-66
2024/01/24 04:12:28;;;;;;;1999.90;999.90;;;;;;;11.93;100.00;101198.81;10336841;28;20054;-66
2024/01/24 04:17:30;;;;;;;1999.90;999.90;;;;;;;11.92;100.00;101210.25;10337233;28;20171;-66
2024/01/24 04:22:33;;;;;;;1999.90;999.90;;;;;;;12.13;100.00;101228.34;10336282;28;20090;-66
2024/01/24 04:27:36;;;;;;;1999.90;999.90;;;;;;;11.92;100.00;101212.88;10336237;28;20397;-66
2024/01/24 04:32:38;;;;;;;1999.90;999.90;;;;;;;11.84;100.00;101208.03;10335530;28;20086;-66
2024/01/24 04:37:41;;;;;;;1999.90;999.90;;;;;;;11.71;100.00;101233.25;10336454;28;20074;-66
2024/01/24 04:42:43;;;;;;;1999.90;999.90;;;;;;;11.69;100.00;101211.50;10336243;28;20056;-65
2024/01/24 04:47:46;;;;;;;1999.90;999.90;;;;;;;11.69;100.00;101201.03;10335391;28;20047;-66
2024/01/24 04:52:48;;;;;;;1999.90;999.90;;;;;;;11.68;100.00;101222.94;10334115;28;20153;-66
2024/01/24 04:57:51;;;;;;;1999.90;999.90;;;;;;;11.67;100.00;101250.09;10334577;28;20050;-65
2024/01/24 05:02:53;;;;;;;1999.90;999.90;;;;;;;11.70;100.00;101278.75;10332848;28;20482;-66
2024/01/24 05:07:55;;;;;;;1999.90;999.90;;;;;;;11.70;100.00;101294.50;10335292;28;20074;-66
2024/01/24 05:12:58;;;;;;;1999.90;999.90;;;;;;;11.56;100.00;101297.88;10335210;28;20053;-66
2024/01/24 05:18:00;;;;;;;1999.90;999.90;;;;;;;11.56;100.00;101287.38;10317865;28;20042;-66
2024/01/24 05:23:03;;;;;;;1999.90;999.90;;;;;;;11.48;100.00;101300.06;10334645;28;20058;-66
2024/01/24 05:28:06;;;;;;;1999.90;999.90;;;;;;;11.33;100.00;101306.94;10334704;28;20081;-66
2024/01/24 05:33:10;;;;;;;1999.90;999.90;;;;;;;11.42;100.00;101301.25;10334276;28;20138;-66
2024/01/24 05:38:13;;;;;;;1999.90;999.90;;;;;;;11.49;100.00;101341.09;10333974;28;20416;-66
2024/01/24 05:43:15;;;;;;;1999.90;999.90;;;;;;;11.42;99.78;101331.88;10334458;28;20054;-66
2024/01/24 05:48:18;;;;;;;1999.90;999.90;;;;;;;11.36;98.76;101337.41;10334266;28;20046;-65
2024/01/24 05:53:20;;;;;;;1999.90;999.90;;;;;;;11.42;95.99;101337.09;10334250;28;20054;-65
2024/01/24 05:58:23;;;;;;;1999.90;999.90;;;;;;;11.42;96.66;101372.03;10334109;28;20125;-66
2024/01/24 06:03:26;;;;;;;1999.90;999.90;;;;;;;11.44;93.90;101358.84;10334069;28;20047;-65
2024/01/24 06:08:31;;;;;;;1999.90;999.90;;;;;;;11.33;96.42;101359.38;10316010;28;20496;-66
2024/01/24 06:13:33;;;;;;;1999.90;999.90;;;;;;;11.38;93.91;101398.47;10333885;28;20486;-66
2024/01/24 06:18:36;;;;;;;1999.90;999.90;;;;;;;11.31;96.29;101405.81;10341191;28;20505;-66
2024/01/24 06:23:38;;;;;;;1999.90;999.90;;;;;;;11.27;96.47;101412.13;10340854;28;20540;-66
2024/01/24 06:28:41;;;;;;;1999.90;999.90;;;;;;;11.27;97.51;101428.72;10341423;28;20049;-66
2024/01/24 06:33:43;;;;;;;1999.90;999.90;;;;;;;11.35;96.86;101444.06;10339571;28;20050;-66
2024/01/24 06:38:46;;;;;;;1999.90;999.90;;;;;;;11.08;99.52;101443.66;10340449;28;20486;-66
2024/01/24 06:43:48;;;;;;;1999.90;999.90;;;;;;;11.07;97.78;101465.53;10339275;28;20148;-67
2024/01/24 06:48:51;;;;;;;1999.90;999.90;;;;;;;11.10;93.22;101489.81;10340031;28;20046;-67
2024/01/24 06:53:53;;;;;;;1999.90;999.90;;;;;;;10.72;95.48;101492.50;10340520;28;20054;-66
2024/01/24 06:58:56;;;;;;;1999.90;999.90;;;;;;;10.63;92.26;101511.25;10340297;28;20073;-65
2024/01/24 07:03:58;;;;;;;1999.90;999.90;;;;;;;10.49;93.59;101537.22;10339515;28;20062;-66
2024/01/24 07:09:01;;;;;;;1999.90;999.90;;;;;;;10.47;91.41;101549.53;10339224;28;20050;-65
2024/01/24 07:14:03;;;;;;;1999.90;999.90;;;;;;;10.32;91.54;101538.84;10338533;28;20060;-65
2024/01/24 07:19:06;;;;;;;1999.90;999.90;;;;;;;10.34;89.09;101546.59;10339525;28;20050;-65
2024/01/24 07:24:08;;;;;;;1999.90;999.90;;;;;;;10.20;92.24;101552.44;10337205;28;20097;-65
2024/01/24 07:29:11;;;;;;;1999.90;999.90;;;;;;;10.41;87.17;101589.94;10338032;28;20047;-65
2024/01/24 07:34:13;;;;;;;1999.90;999.90;;;;;;;10.09;88.12;101557.28;10337785;28;20085;-65
2024/01/24 07:39:15;;;;;;;1999.90;999.90;;;;;;;10.07;89.30;101556.50;10338767;28;20050;-65
2024/01/24 07:44:18;;;;;;;1999.90;999.90;;;;;;;10.14;87.10;101587.56;10338583;28;20113;-65
2024/01/24 07:49:20;;;;;;;1999.90;999.90;;;;;;;10.17;86.54;101570.88;10338372;28;20058;-65
2024/01/24 07:54:23;;;;;;;1999.90;999.90;;;;;;;9.94;89.51;101577.09;10338222;28;20162;-65
2024/01/24 07:59:25;;;;;;;1999.90;999.90;;;;;;;9.96;87.95;101632.81;10337978;28;20061;-65
2024/01/24 08:04:30;;;;;;;1999.90;999.90;;;;;;;9.88;89.27;101609.59;10337579;28;20054;-65
2024/01/24 08:09:34;;;;;;;1999.90;999.90;;;;;;;10.01;87.93;101623.84;10335778;28;20060;-65
2024/01/24 08:14:36;;;;;;;1999.90;999.90;;;;;;;9.93;86.58;101601.56;10336196;28;20054;-66
2024/01/24 08:19:42;;;;;;;1999.90;999.90;;;;;;;10.04;86.60;101644.66;10335416;28;20410;-66
2024/01/24 08:24:44;;;;;;;1999.90;999.90;;;;;;;10.13;84.22;101627.72;10336186;28;20054;-65
2024/01/24 08:29:47;;;;;;;1999.90;999.90;;;;;;;10.18;82.99;101656.31;10335634;28;20137;-66
2024/01/24 08:34:49;;;;;;;1999.90;999.90;;;;;;;10.06;84.48;101672.53;10336579;28;20050;-65
2024/01/24 08:39:52;;;;;;;1999.90;999.90;;;;;;;10.03;84.76;101663.88;10336197;28;20057;-65
2024/01/24 08:44:54;;;;;;;1999.90;999.90;;;;;;;10.21;83.66;101672.75;10335025;28;20093;-65
2024/01/24 08:49:56;;;;;;;1999.90;999.90;;;;;;;10.08;83.05;101684.63;10334846;28;20498;-65
2024/01/24 08:54:59;;;;;;;1999.90;999.90;;;;;;;10.14;83.04;101700.09;10334660;28;20504;-65
2024/01/24 09:00:03;;;;;;;1999.90;999.90;;;;;;;10.13;83.18;101674.81;10335713;28;20105;-66
2024/01/24 09:05:08;;;;;;;1999.90;999.90;;;;;;;10.13;81.38;101705.38;10334841;28;20382;-65
2024/01/24 09:10:11;;;;;;;1999.90;999.90;;;;;;;10.53;81.30;101722.94;10348007;28;20053;-65
2024/01/24 09:15:14;;;;;;;1999.90;999.90;;;;;;;10.71;78.81;101746.66;10331539;28;20551;-69
2024/01/24 09:20:17;;;;;;;1999.90;999.90;;;;;;;10.39;81.16;101730.53;10302299;28;20050;-67
2024/01/24 09:25:21;;;;;;;1999.90;999.90;;;;;;;10.32;80.60;101744.75;10362562;28;20050;-69
2024/01/24 09:30:25;;;;;;;1999.90;999.90;;;;;;;10.83;77.02;101784.56;10356466;28;20061;-66
2024/01/24 09:35:27;;;;;;;1999.90;999.90;;;;;;;11.12;77.71;101760.53;10335402;28;20039;-66
2024/01/24 09:40:30;;;;;;;1999.90;999.90;;;;;;;10.98;78.29;101807.47;10325565;28;20050;-66
2024/01/24 09:45:33;;;;;;;1999.90;999.90;;;;;;;11.15;77.60;101817.22;10326483;28;20047;-64
2024/01/24 09:50:36;;;;;;;1999.90;999.90;;;;;;;11.81;75.66;101835.25;10328736;28;20054;-64
2024/01/24 09:55:39;;;;;;;1999.90;999.90;;;;;;;12.19;73.14;101813.41;10362584;28;20432;-64
2024/01/24 10:00:42;;;;;;;1999.90;999.90;;;;;;;11.98;73.97;101817.91;10347222;28;20102;-68
2024/01/24 10:05:45;;;;;;;1999.90;999.90;;;;;;;13.19;69.34;101830.28;10283273;28;20130;-68
2024/01/24 10:10:48;;;;;;;1999.90;999.90;;;;;;;13.30;69.13;101831.53;10366456;28;20445;-69
2024/01/24 10:15:50;;;;;;;1999.90;999.90;;;;;;;12.17;71.69;101824.00;10330955;28;20042;-69
2024/01/24 10:20:54;;;;;;;1999.90;999.90;;;;;;;13.32;70.43;101814.75;10385268;28;20050;-69
2024/01/24 10:26:00;;;;;;;1999.90;999.90;;;;;;;13.42;67.94;101845.84;10386619;28;20060;-69
2024/01/24 10:31:04;;;;;;;1999.90;999.90;;;;;;;11.75;73.04;101848.66;10387717;28;20049;-69
2024/01/24 10:36:08;;;;;;;1999.90;999.90;;;;;;;11.29;75.42;101856.78;10386472;28;20073;-68
2024/01/24 10:41:30;;;;;;;1999.90;999.90;;;;;;;11.43;74.54;101864.06;10387571;28;20141;-69
2024/01/24 10:46:33;;;;;;;1999.90;999.90;;;;;;;11.34;75.93;101899.38;10387397;28;20049;-69
2024/01/24 10:51:36;;;;;;;1999.90;999.90;;;;;;;11.21;75.06;101913.09;10386207;28;20050;-69
2024/01/24 10:56:40;;;;;;;1999.90;999.90;;;;;;;11.36;74.83;101907.19;10387427;28;20053;-69
2024/01/24 11:01:43;;;;;;;1999.90;999.90;;;;;;;11.28;75.67;101910.16;10381890;28;20101;-69
2024/01/24 11:06:51;;;;;;;1999.90;999.90;;;;;;;11.14;75.00;101902.84;10380574;28;20046;-69
2024/01/24 11:11:57;;;;;;;1999.90;999.90;;;;;;;11.20;75.56;101909.63;10380493;28;20047;-69
2024/01/24 11:17:00;;;;;;;1999.90;999.90;;;;;;;11.40;75.41;101914.03;10362986;28;20068;-69
2024/01/24 11:22:09;;;;;;;1999.90;999.90;;;;;;;11.25;75.51;101914.69;10378860;28;20080;-69
2024/01/24 11:27:35;;;;;;;1999.90;999.90;;;;;;;11.15;75.04;101903.72;10378148;28;20424;-69
2024/01/24 11:32:57;;;;;;;1999.90;999.90;;;;;;;11.18;73.63;101935.06;10379873;28;20141;-69
2024/01/24 11:38:22;;;;;;;1999.90;999.90;;;;;;;11.07;75.01;101947.75;10378846;28;20500;-69
2024/01/24 11:43:32;;;;;;;1999.90;999.90;;;;;;;11.31;75.19;101953.72;10378666;28;20472;-69
2024/01/24 11:48:40;;;;;;;1999.90;999.90;;;;;;;11.09;75.12;101954.63;10378362;28;20482;-69
2024/01/24 11:53:44;;;;;;;1999.90;999.90;;;;;;;11.01;74.16;101997.78;10377735;28;20084;-69
2024/01/24 11:58:46;;;;;;;1999.90;999.90;;;;;;;11.03;75.11;101975.84;10376891;28;20050;-69
2024/01/24 12:03:50;;;;;;;1999.90;999.90;;;;;;;11.24;74.66;101997.69;10378621;28;20064;-69
2024/01/24 12:08:54;;;;;;;1999.90;999.90;;;;;;;11.17;76.04;102008.50;10377541;28;20497;-69
2024/01/24 12:14:00;;;;;;;1999.90;999.90;;;;;;;11.42;75.98;102024.94;10377630;28;20115;-72
2024/01/24 12:19:03;;;;;;;1999.90;999.90;;;;;;;11.20;75.15;102034.59;10376710;28;20077;-71
2024/01/24 12:24:07;;;;;;;1999.90;999.90;;;;;;;11.06;74.89;102040.38;10376864;28;20071;-69
2024/01/24 12:29:09;;;;;;;1999.90;999.90;;;;;;;10.99;75.46;102036.31;10377418;28;20056;-70
2024/01/24 12:34:12;;;;;;;1999.90;999.90;;;;;;;11.32;75.72;102034.09;10377241;28;20054;-68
2024/01/24 12:39:15;;;;;;;1999.90;999.90;;;;;;;10.99;74.12;102038.91;10376416;28;20437;-69
2024/01/24 12:44:17;;;;;;;1999.90;999.90;;;;;;;10.79;74.69;102043.16;10376426;28;20050;-68
2024/01/24 12:49:22;;;;;;;1999.90;999.90;;;;;;;10.82;75.15;102058.75;10375514;28;20084;-68
2024/01/24 12:54:25;;;;;;;1999.90;999.90;;;;;;;10.86;75.63;102072.59;10375893;28;20539;-69
2024/01/24 12:59:28;;;;;;;1999.90;999.90;;;;;;;10.84;76.02;102079.66;10376397;28;20046;-69
2024/01/24 13:04:31;;;;;;;1999.90;999.90;;;;;;;10.83;76.95;102076.19;10376178;28;20053;-69
2024/01/24 13:09:34;;;;;;;1999.90;999.90;;;;;;;10.74;76.37;102107.97;10375932;28;20129;-68
2024/01/24 13:14:44;;;;;;;1999.90;999.90;;;;;;;10.62;77.13;102101.41;10375279;28;20493;-69
2024/01/24 13:19:46;;;;;;;1999.90;999.90;;;;;;;10.52;76.40;102119.25;10375840;28;20049;-68
2024/01/24 13:24:49;;;;;;;1999.90;999.90;;;;;;;10.61;76.78;102131.16;10372952;28;20064;-69
2024/01/24 13:29:57;;;;;;;1999.90;999.90;;;;;;;10.54;77.99;102122.66;10374722;28;20481;-69
2024/01/24 13:34:59;;;;;;;1999.90;999.90;;;;;;;10.43;77.04;102145.75;10375278;28;20083;-68
2024/01/24 13:40:02;;;;;;;1999.90;999.90;;;;;;;10.44;77.97;102157.94;10359767;22;20141;-68
2024/01/24 13:45:05;;;;;;;1999.90;999.90;;;;;;;10.30;79.37;102153.13;10333410;28;20134;-68
2024/01/24 13:50:09;;;;;;;1999.90;999.90;;;;;;;10.49;78.55;102160.38;10334338;28;20046;-68
2024/01/24 13:55:12;;;;;;;1999.90;999.90;;;;;;;10.34;79.31;102160.03;10333747;28;20051;-68
2024/01/24 14:00:15;;;;;;;1999.90;999.90;;;;;;;10.59;78.32;102182.72;10333573;28;20062;-68
2024/01/24 14:05:18;;;;;;;1999.90;999.90;;;;;;;10.36;77.92;102192.25;10333437;28;20405;-68
2024/01/24 14:10:20;;;;;;;1999.90;999.90;;;;;;;10.30;78.40;102204.66;10334035;28;20114;-68
2024/01/24 14:15:23;;;;;;;1999.90;999.90;;;;;;;10.26;77.62;102203.06;10333964;28;20081;-69
2024/01/24 14:20:36;;;;;;;1999.90;999.90;;;;;;;10.33;78.73;102223.75;10333885;28;20050;-68
2024/01/24 14:25:39;;;;;;;1999.90;999.90;;;;;;;10.21;78.95;102232.84;10331920;28;20482;-68
2024/01/24 14:30:41;;;;;;;1999.90;999.90;;;;;;;10.20;78.05;102244.22;10333026;28;20054;-68
2024/01/24 14:35:44;;;;;;;1999.90;999.90;;;;;;;10.17;79.10;102235.59;10335872;28;20057;-68
2024/01/24 14:40:47;;;;;;;1999.90;999.90;;;;;;;10.10;80.80;102242.78;10339233;28;20494;-68
2024/01/24 14:45:49;;;;;;;1999.90;999.90;;;;;;;10.04;81.50;102262.16;10340213;28;20051;-68
2024/01/24 14:50:51;;;;;;;1999.90;999.90;;;;;;;9.75;81.87;102272.69;10340060;28;20490;-68
2024/01/24 14:55:54;;;;;;;1999.90;999.90;;;;;;;9.92;82.51;102280.88;10340563;28;20050;-68
2024/01/24 15:00:57;;;;;;;1999.90;999.90;;;;;;;9.74;83.16;102282.28;10339735;28;20089;-68
2024/01/24 15:05:59;;;;;;;1999.90;999.90;;;;;;;9.70;82.98;102288.53;10339531;28;20073;-68
2024/01/24 15:11:01;;;;;;;1999.90;999.90;;;;;;;9.71;83.06;102292.00;10340006;28;20054;-68
2024/01/24 15:16:04;;;;;;;1999.90;999.90;;;;;;;9.68;84.01;102324.31;10339169;28;20405;-68
2024/01/24 15:21:10;;;;;;;1999.90;999.90;;;;;;;9.61;83.18;102307.94;10339627;28;20054;-68
2024/01/24 15:26:15;;;;;;;1999.90;999.90;;;;;;;9.59;84.01;102309.75;10337636;28;20046;-68
2024/01/24 15:31:18;;;;;;;1999.90;999.90;;;;;;;9.62;84.02;102329.75;10339246;28;20052;-68
2024/01/24 15:36:20;;;;;;;1999.90;999.90;;;;;;;9.52;84.53;102336.13;10338554;28;20046;-68
2024/01/24 15:41:23;;;;;;;1999.90;999.90;;;;;;;9.39;84.60;102344.31;10337031;28;20069;-68
2024/01/24 15:46:26;;;;;;;1999.90;999.90;;;;;;;9.37;84.73;102358.34;10337790;28;20154;-68
2024/01/24 15:51:29;;;;;;;1999.90;999.90;;;;;;;9.32;87.15;102376.75;10337903;28;20050;-68
2024/01/24 15:56:31;;;;;;;1999.90;999.90;;;;;;;9.25;85.39;102381.28;10338262;28;20129;-68
2024/01/24 16:01:34;;;;;;;1999.90;999.90;;;;;;;9.27;87.48;102378.63;10336330;28;20452;-68
2024/01/24 16:06:37;;;;;;;1999.90;999.90;;;;;;;9.23;87.25;102375.25;10337825;28;20074;-68
2024/01/24 16:11:40;;;;;;;1999.90;999.90;;;;;;;9.17;88.52;102380.63;10337105;28;20509;-68
2024/01/24 16:16:45;;;;;;;1999.90;999.90;;;;;;;9.20;88.46;102375.31;10337513;28;20133;-68
2024/01/24 16:21:51;;;;;;;1999.90;999.90;;;;;;;9.18;88.91;102379.72;10336212;28;20054;-68
2024/01/24 16:26:53;;;;;;;1999.90;999.90;;;;;;;9.09;89.74;102390.41;10335963;28;20081;-68
2024/01/24 16:31:56;;;;;;;1999.90;999.90;;;;;;;9.15;89.68;102395.50;10336898;28;20074;-68
2024/01/24 16:36:58;;;;;;;1999.90;999.90;;;;;;;9.27;89.69;102397.78;10336684;28;20057;-68
2024/01/24 16:42:05;;;;;;;1999.90;999.90;;;;;;;9.15;89.60;102426.00;10334565;28;20065;-68
2024/01/24 16:47:07;;;;;;;1999.90;999.90;;;;;;;9.17;91.01;102417.22;10334533;28;20104;-68
2024/01/24 16:52:11;;;;;;;1999.90;999.90;;;;;;;9.07;90.84;102415.72;10336094;28;20132;-68
2024/01/24 16:57:14;;;;;;;1999.90;999.90;;;;;;;9.12;91.63;102426.91;10335171;28;20561;-68
2024/01/24 17:02:17;;;;;;;1999.90;999.90;;;;;;;9.09;91.16;102411.31;10334626;28;20054;-68
2024/01/24 17:07:21;;;;;;;1999.90;999.90;;;;;;;9.16;90.25;102420.69;10335547;28;20049;-68
2024/01/24 17:12:25;;;;;;;1999.90;999.90;;;;;;;9.14;90.37;102425.13;10335454;28;20078;-68
2024/01/24 17:17:28;;;;;;;1999.90;999.90;;;;;;;8.99;90.85;102443.78;10335251;28;20100;-68
2024/01/24 17:22:30;;;;;;;1999.90;999.90;;;;;;;9.09;89.95;102446.16;10335269;28;20046;-67
2024/01/24 17:27:32;;;;;;;1999.90;999.90;;;;;;;9.11;90.11;102446.97;10334257;28;20054;-68
2024/01/24 17:32:35;;;;;;;1999.90;999.90;;;;;;;9.16;91.28;102449.44;10333710;28;20061;-68
2024/01/24 17:37:37;;;;;;;1999.90;999.90;;;;;;;9.08;90.85;102462.72;10333938;28;20464;-68
2024/01/24 17:42:40;;;;;;;1999.90;999.90;;;;;;;9.15;90.71;102476.50;10334690;28;20157;-68
2024/01/24 17:47:42;;;;;;;1999.90;999.90;;;;;;;9.13;90.60;102472.19;10334430;28;20057;-68
2024/01/24 17:52:46;;;;;;;1999.90;999.90;;;;;;;9.17;90.29;102477.31;10333681;28;20413;-68
2024/01/24 17:57:49;;;;;;;1999.90;999.90;;;;;;;9.07;91.01;102481.03;10334292;28;20051;-68
2024/01/24 18:02:52;;;;;;;1999.90;999.90;;;;;;;9.09;91.92;102471.41;10333596;28;20062;-68
2024/01/24 18:07:55;;;;;;;1999.90;999.90;;;;;;;9.15;91.08;102486.09;10332822;28;20165;-68
2024/01/24 18:12:58;;;;;;;1999.90;999.90;;;;;;;9.16;90.55;102487.78;10340721;28;20456;-68
2024/01/24 18:18:01;;;;;;;1999.90;999.90;;;;;;;9.20;89.99;102482.47;10341427;28;20401;-68
2024/01/24 18:23:04;;;;;;;1999.90;999.90;;;;;;;9.20;89.77;102486.84;10340944;28;20061;-68
2024/01/24 18:28:06;;;;;;;1999.90;999.90;;;;;;;9.21;89.42;102478.97;10341575;28;20046;-68
2024/01/24 18:33:08;;;;;;;1999.90;999.90;;;;;;;9.33;89.08;102490.88;10341500;28;20058;-68
2024/01/24 18:38:11;;;;;;;1999.90;999.90;;;;;;;9.31;89.24;102497.88;10340998;28;20105;-68
2024/01/24 18:43:13;;;;;;;1999.90;999.90;;;;;;;9.44;87.79;102480.13;10341048;28;20054;-68
2024/01/24 18:48:17;;;;;;;1999.90;999.90;;;;;;;9.26;88.46;102478.84;10340193;28;20478;-68
2024/01/24 18:53:20;;;;;;;1999.90;999.90;;;;;;;9.26;88.86;102465.75;10340069;28;20080;-68
2024/01/24 18:58:24;;;;;;;1999.90;999.90;;;;;;;9.09;89.00;102469.69;10338871;28;20082;-68
2024/01/24 19:03:26;;;;;;;1999.90;999.90;;;;;;;9.14;89.01;102472.16;10340363;28;20085;-68
2024/01/24 19:08:32;;;;;;;1999.90;999.90;;;;;;;9.10;89.45;102481.81;10340064;28;20050;-68
2024/01/24 19:13:35;;;;;;;1999.90;999.90;;;;;;;8.91;89.87;102484.03;10339361;28;20050;-68
2024/01/24 19:18:37;;;;;;;1999.90;999.90;;;;;;;8.87;91.03;102481.50;10339843;28;20057;-68
2024/01/24 19:23:40;;;;;;;1999.90;999.90;;;;;;;8.70;91.54;102492.34;10338309;28;20050;-68
2024/01/24 19:28:42;;;;;;;1999.90;999.90;;;;;;;8.69;93.56;102509.78;10338206;28;20050;-68
2024/01/24 19:33:47;;;;;;;1999.90;999.90;;;;;;;8.70;93.33;102506.25;10338560;28;20441;-68
2024/01/24 19:38:50;;;;;;;1999.90;999.90;;;;;;;8.64;93.01;102511.63;10338311;28;20459;-68
2024/01/24 19:43:53;;;;;;;1999.90;999.90;;;;;;;8.59;94.38;102513.50;10338857;28;20064;-68
2024/01/24 19:48:55;;;;;;;1999.90;999.90;;;;;;;8.54;95.52;102524.03;10337979;28;20042;-68
2024/01/24 19:53:57;;;;;;;1999.90;999.90;;;;;;;8.44;95.53;102532.06;10338399;28;20101;-68
2024/01/24 19:59:00;;;;;;;1999.90;999.90;;;;;;;8.37;97.05;102531.28;10338263;28;20121;-68
2024/01/24 20:04:02;;;;;;;1999.90;999.90;;;;;;;8.33;97.44;102529.66;10338012;28;20129;-68
2024/01/24 20:09:04;;;;;;;1999.90;999.90;;;;;;;8.37;97.58;102521.72;10337127;28;20050;-68
2024/01/24 20:14:07;;;;;;;1999.90;999.90;;;;;;;8.42;98.00;102529.44;10337021;28;20483;-68
2024/01/24 20:19:09;;;;;;;1999.90;999.90;;;;;;;8.34;98.55;102532.22;10336822;28;20051;-68
2024/01/24 20:24:12;;;;;;;1999.90;999.90;;;;;;;8.47;98.23;102529.41;10336104;28;20061;-68
2024/01/24 20:29:14;;;;;;;1999.90;999.90;;;;;;;8.43;98.94;102538.19;10335129;28;20410;-68
2024/01/24 20:34:16;;;;;;;1999.90;999.90;;;;;;;8.49;97.66;102548.50;10335776;28;20537;-68
2024/01/24 20:39:22;;;;;;;1999.90;999.90;;;;;;;8.53;97.70;102553.63;10334907;28;20050;-68
2024/01/24 20:44:24;;;;;;;1999.90;999.90;;;;;;;8.49;98.61;102548.50;10335831;28;20383;-68
2024/01/24 20:49:27;;;;;;;1999.90;999.90;;;;;;;8.47;98.62;102555.50;10336185;28;20085;-68
2024/01/24 20:54:29;;;;;;;1999.90;999.90;;;;;;;8.41;98.86;102550.38;10335449;28;20054;-68
2024/01/24 20:59:32;;;;;;;1999.90;999.90;;;;;;;8.40;99.60;102559.09;10335231;28;20053;-68
2024/01/24 21:04:35;;;;;;;1999.90;999.90;;;;;;;8.35;100.00;102560.06;10335141;28;20062;-68
2024/01/24 21:09:38;;;;;;;1999.90;999.90;;;;;;;8.49;99.83;102551.09;10335564;28;20046;-68
2024/01/24 21:14:40;;;;;;;1999.90;999.90;;;;;;;8.37;100.00;102549.56;10334781;28;20556;-68
2024/01/24 21:19:42;;;;;;;1999.90;999.90;;;;;;;8.29;99.98;102546.28;10335232;28;20074;-68
2024/01/24 21:24:45;;;;;;;1999.90;999.90;;;;;;;8.42;99.71;102550.34;10333863;28;20064;-68
2024/01/24 21:29:47;;;;;;;1999.90;999.90;;;;;;;8.36;100.00;102555.69;10334849;28;20058;-68
2024/01/24 21:34:50;;;;;;;1999.90;999.90;;;;;;;8.23;100.00;102562.88;10334781;28;20062;-69
2024/01/24 21:39:52;;;;;;;1999.90;999.90;;;;;;;8.28;100.00;102552.38;10333044;28;20162;-68
2024/01/24 21:44:55;;;;;;;1999.90;999.90;;;;;;;8.42;100.00;102533.81;10332666;28;20137;-68
2024/01/24 21:49:58;;;;;;;1999.90;999.90;;;;;;;8.31;100.00;102529.69;10317185;28;20042;-69
2024/01/24 21:55:01;;;;;;;1999.90;999.90;;;;;;;8.24;100.00;102545.47;10334406;28;20060;-68